Last 24 Hours

OV-Siberia 8700'

Hourly Data | America/Los_Angeles
as of 5/10/26 11:43 AM PDT
Date & Time Temp (°F) RH (%) Dew Pt (°F) Wet Bulb (°F) Wind Dir (°) Wind Spd (mph) Wind Gust (mph) WindChill (°F) Daily Min Temp (°F) Daily Max Temp (°F)
5/10/26 - 1100 59.2 38 33.4 45.6 WNW | 283 6.9 18.1 58.3 51.2 59.2
5/10/26 - 1000 57.8 32 27.8 43.0 WSW | 248 5.2 13.9 56.8 51.2 57.8
5/10/26 - 0900 56.1 29 24.5 41.2 SW | 220 3.6 9.6 56.0 51.2 56.4
5/10/26 - 0800 55.9 28 23.6 40.9 SSE | 157 3.2 8.3 55.1 51.2 56.0
5/10/26 - 0700 54.3 23 17.1 38.4 ESE | 113 4.5 10.6 53.0 51.2 54.6
5/10/26 - 0600 52.7 23 16.2 37.4 ESE | 108 4.7 11.2 52.6 51.2 53.9
5/10/26 - 0500 53.3 23 16.7 37.8 E | 80 5.3 12.6 52.5 51.2 53.9
5/10/26 - 0400 52.5 23 15.6 37.2 ENE | 73 6.5 12.9 52.5 51.2 53.9
5/10/26 - 0300 53.3 22 15.1 37.5 E | 84 8.5 17.3 51.7 51.2 53.9
5/10/26 - 0200 52.8 24 16.8 37.6 E | 92 10.2 19.2 49.8 51.2 53.8
5/10/26 - 0100 51.2 27 18.1 37.1 E | 94 10.1 22.2 48.5 51.2 52.5
5/10/26 - 0000 52.5 25 18.0 37.7 ENE | 78 8.8 20.5 53.0 41.7 59.9
5/9/26 - 2300 53.9 26 19.6 38.8 E | 91 8.4 18.3 53.2 41.7 59.9
5/9/26 - 2200 53.3 29 21.6 39.1 E | 96 6.2 15.3 53.5 41.7 59.9
5/9/26 - 2100 53.4 32 24.5 40.0 E | 94 2.1 8.5 54.0 41.7 59.9
5/9/26 - 2000 55.9 33 26.9 41.9 E | 87 0.6 3.8 57.0 41.7 59.9
5/9/26 - 1900 57.9 24 21.7 41.3 E | 101 1.6 5.0 57.7 41.7 59.9
5/9/26 - 1800 57.4 25 21.7 41.0 E | 86 2.1 7.4 57.7 41.7 59.9
5/9/26 - 1700 57.1 27 23.3 41.3 E | 85 3.0 9.8 56.9 41.7 58.7
5/9/26 - 1600 56.5 29 24.6 41.5 N | 0 3.2 10.8 56.0 41.7 57.0
5/9/26 - 1500 55.3 33 26.7 41.6 E | 86 3.8 12.9 55.3 41.7 57.0
5/9/26 - 1400 54.0 36 27.4 41.2 E | 93 5.4 15.1 53.5 41.7 55.3
5/9/26 - 1300 52.9 39 28.5 41.0 E | 85 6.2 14.1 50.9 41.7 54.3
5/9/26 - 1200 50.7 43 29.2 40.2 E | 95 7.2 17.8 47.6 41.7 51.9
5/9/26 - 1100 49.4 45 29.2 39.6 E | 95 8.4 17.9 45.0 41.7 49.9
Max 59.2 45 33.4 45.6 - 10.2 22.2 58.3 51.2 59.9
Avg 54.4 29 22.7 40.0 - 5.4 13.3 53.5 - -
Min 49.4 22 15.1 37.1 - 0.6 3.8 45.0 41.7 49.9